Hauptseite
METAR-TAF:

METAR-TAF

Flughäfen :

Chambery / Aix-Les-Bains, Frankreich

Flughafen Chambéry-Savoie

Breite: 45-39N, Länge: 005-53E, Höhe: 235 m

Beobachtung

Neuester Wetterbericht von vor 34 Minuten, um 23:30 UTC
Wind 2 kt aus Süd
Temperatur 1°C
Luftfeuchtigkeit 100%
Luftdruck 1025 hPa
Sichtweite: 8000 m
Durchbrochene Bewölkung in der Höhe von 700 ft

METAR: LFLB 192330Z AUTO 18002KT 8000 BKN007 01/01 Q1025

Zeit: 01:04 (00:04 UTC)

Prognose

Neuester Wetterbericht von vor 7 Stunden und 4 Minuten, um 17:00 UTC
Gültige Prognose vom 19 um 18 UTC bis 20 um 18 UTC
Wind 5 kt aus Nord
Sichtweite 10 km oder mehr
Aufgelockert bewölkt in der Höhe von 4000 ft
Wahrscheinlichkeit 40%
vom 20 um 03 UTC bis 20 um 09 UTC
Sichtweite: 4000 m
Durchbrochene Bewölkung in der Höhe von 1300 ft
feuchter Dunst

TAF: LFLB 191700Z 1918/2018 36005KT 9999 SCT040 PROB40 2003/2009 4000 BR BKN013

Wetterbeobachtungen und Prognosen von mehr als 4000 Flughäfen (METAR und TAF Bericht).

Die verfügbaren Stationen werden durch gelbe und rote Markierungen auf der Karte dargestellt.

Führen Sie die Maus auf sie, um den Namen der Station zu sehen.

Darauf klicken, um die Beobachtung von Wetterbeobachtungen und Prognosen zu sehen.

Um die Karte zu ändern : klicken Sie auf den grünen Tasten mit einem schwarzen Kreuz Zum Vergrößern, auf den grünen Button mit einem Gedankenstrich zu verkleinern, oder auf die grünen Pfeile für benachbarte Karten.


METAR-TAF: